sensor_id;sensor_type;location;lat;lon;timestamp;P1;durP1;ratioP1;P2;durP2;ratioP2
9270;SDS011;4673;53.458;9.940;2022-08-01T00:02:14;17.98;;;17.88;;
9270;SDS011;4673;53.458;9.940;2022-08-01T00:04:40;18.08;;;17.98;;
9270;SDS011;4673;53.458;9.940;2022-08-01T00:07:06;16.90;;;16.80;;
9270;SDS011;4673;53.458;9.940;2022-08-01T00:09:31;17.85;;;17.75;;
9270;SDS011;4673;53.458;9.940;2022-08-01T00:11:57;17.67;;;17.58;;
9270;SDS011;4673;53.458;9.940;2022-08-01T00:14:23;17.20;;;17.10;;
9270;SDS011;4673;53.458;9.940;2022-08-01T00:16:48;17.42;;;17.33;;
9270;SDS011;4673;53.458;9.940;2022-08-01T00:19:14;17.48;;;17.38;;
9270;SDS011;4673;53.458;9.940;2022-08-01T00:21:39;18.30;;;18.20;;
9270;SDS011;4673;53.458;9.940;2022-08-01T00:24:05;17.42;;;17.33;;
9270;SDS011;4673;53.458;9.940;2022-08-01T00:26:31;18.38;;;18.27;;
9270;SDS011;4673;53.458;9.940;2022-08-01T00:28:56;18.65;;;18.55;;
9270;SDS011;4673;53.458;9.940;2022-08-01T00:31:22;18.20;;;18.10;;
9270;SDS011;4673;53.458;9.940;2022-08-01T00:33:48;18.00;;;17.90;;
9270;SDS011;4673;53.458;9.940;2022-08-01T00:36:13;17.20;;;17.10;;
9270;SDS011;4673;53.458;9.940;2022-08-01T00:38:39;16.58;;;16.48;;
9270;SDS011;4673;53.458;9.940;2022-08-01T00:41:05;16.13;;;16.02;;
9270;SDS011;4673;53.458;9.940;2022-08-01T00:43:30;16.80;;;16.70;;
9270;SDS011;4673;53.458;9.940;2022-08-01T00:45:56;16.40;;;16.30;;
9270;SDS011;4673;53.458;9.940;2022-08-01T00:48:21;16.05;;;15.95;;
9270;SDS011;4673;53.458;9.940;2022-08-01T00:50:47;15.90;;;15.80;;
9270;SDS011;4673;53.458;9.940;2022-08-01T00:53:13;15.82;;;15.73;;
9270;SDS011;4673;53.458;9.940;2022-08-01T00:55:39;15.85;;;15.75;;
9270;SDS011;4673;53.458;9.940;2022-08-01T00:58:05;15.55;;;15.45;;
9270;SDS011;4673;53.458;9.940;2022-08-01T01:00:31;15.60;;;15.50;;
9270;SDS011;4673;53.458;9.940;2022-08-01T01:02:58;15.35;;;15.35;;
9270;SDS011;4673;53.458;9.940;2022-08-01T01:05:23;13.20;;;13.20;;
9270;SDS011;4673;53.458;9.940;2022-08-01T01:07:59;12.65;;;12.65;;
9270;SDS011;4673;53.458;9.940;2022-08-01T01:10:31;12.73;;;12.73;;
9270;SDS011;4673;53.458;9.940;2022-08-01T01:15:34;12.27;;;12.27;;
9270;SDS011;4673;53.458;9.940;2022-08-01T01:18:14;10.57;;;10.57;;
9270;SDS011;4673;53.458;9.940;2022-08-01T01:29:32;10.15;;;10.15;;
9270;SDS011;4673;53.458;9.940;2022-08-01T01:34:45;10.73;;;10.73;;
9270;SDS011;4673;53.458;9.940;2022-08-01T01:37:15;10.98;;;10.98;;
9270;SDS011;4673;53.458;9.940;2022-08-01T01:39:43;12.38;;;12.38;;
9270;SDS011;4673;53.458;9.940;2022-08-01T01:42:11;12.50;;;12.50;;
9270;SDS011;4673;53.458;9.940;2022-08-01T01:44:38;11.20;;;11.20;;
9270;SDS011;4673;53.458;9.940;2022-08-01T01:47:06;13.57;;;13.57;;
9270;SDS011;4673;53.458;9.940;2022-08-01T01:49:32;11.60;;;11.52;;
9270;SDS011;4673;53.458;9.940;2022-08-01T01:51:59;12.10;;;12.07;;
9270;SDS011;4673;53.458;9.940;2022-08-01T01:54:30;12.60;;;12.60;;
9270;SDS011;4673;53.458;9.940;2022-08-01T01:57:00;12.82;;;12.82;;
9270;SDS011;4673;53.458;9.940;2022-08-01T01:59:29;12.25;;;12.25;;
9270;SDS011;4673;53.458;9.940;2022-08-01T02:01:58;12.45;;;12.45;;
9270;SDS011;4673;53.458;9.940;2022-08-01T02:04:27;12.00;;;12.00;;
9270;SDS011;4673;53.458;9.940;2022-08-01T02:06:54;12.38;;;12.38;;
9270;SDS011;4673;53.458;9.940;2022-08-01T02:09:21;12.32;;;12.32;;
9270;SDS011;4673;53.458;9.940;2022-08-01T02:11:49;12.38;;;12.38;;
9270;SDS011;4673;53.458;9.940;2022-08-01T02:14:16;11.60;;;11.60;;
9270;SDS011;4673;53.458;9.940;2022-08-01T02:16:44;11.13;;;11.07;;
9270;SDS011;4673;53.458;9.940;2022-08-01T02:19:12;11.75;;;11.75;;
9270;SDS011;4673;53.458;9.940;2022-08-01T02:22:01;11.60;;;11.60;;
9270;SDS011;4673;53.458;9.940;2022-08-01T02:25:19;11.38;;;11.38;;
9270;SDS011;4673;53.458;9.940;2022-08-01T02:30:35;10.40;;;10.40;;
9270;SDS011;4673;53.458;9.940;2022-08-01T02:33:08;11.40;;;11.35;;
9270;SDS011;4673;53.458;9.940;2022-08-01T02:35:47;10.48;;;10.48;;
9270;SDS011;4673;53.458;9.940;2022-08-01T02:38:18;10.60;;;10.52;;
9270;SDS011;4673;53.458;9.940;2022-08-01T02:40:47;10.38;;;10.38;;
9270;SDS011;4673;53.458;9.940;2022-08-01T02:43:15;10.27;;;10.27;;
9270;SDS011;4673;53.458;9.940;2022-08-01T02:45:45;11.55;;;11.55;;
9270;SDS011;4673;53.458;9.940;2022-08-01T02:48:14;11.00;;;11.00;;
9270;SDS011;4673;53.458;9.940;2022-08-01T02:50:44;11.07;;;11.07;;
9270;SDS011;4673;53.458;9.940;2022-08-01T02:53:12;11.38;;;11.30;;
9270;SDS011;4673;53.458;9.940;2022-08-01T02:55:39;11.15;;;11.15;;
9270;SDS011;4673;53.458;9.940;2022-08-01T02:58:08;10.35;;;10.35;;
9270;SDS011;4673;53.458;9.940;2022-08-01T03:00:35;10.45;;;10.45;;
9270;SDS011;4673;53.458;9.940;2022-08-01T03:03:01;10.25;;;10.25;;
9270;SDS011;4673;53.458;9.940;2022-08-01T03:05:28;10.00;;;10.00;;
9270;SDS011;4673;53.458;9.940;2022-08-01T03:07:57;11.55;;;11.48;;
9270;SDS011;4673;53.458;9.940;2022-08-01T03:10:26;10.15;;;10.15;;
9270;SDS011;4673;53.458;9.940;2022-08-01T03:12:53;9.95;;;9.95;;
9270;SDS011;4673;53.458;9.940;2022-08-01T03:15:20;10.35;;;10.35;;
9270;SDS011;4673;53.458;9.940;2022-08-01T03:17:48;10.07;;;10.07;;
9270;SDS011;4673;53.458;9.940;2022-08-01T03:20:16;9.32;;;9.32;;
9270;SDS011;4673;53.458;9.940;2022-08-01T03:22:44;9.00;;;9.00;;
9270;SDS011;4673;53.458;9.940;2022-08-01T03:25:11;8.40;;;8.40;;
9270;SDS011;4673;53.458;9.940;2022-08-01T03:27:40;8.70;;;8.70;;
9270;SDS011;4673;53.458;9.940;2022-08-01T03:30:08;8.05;;;8.05;;
9270;SDS011;4673;53.458;9.940;2022-08-01T03:32:35;8.43;;;8.43;;
9270;SDS011;4673;53.458;9.940;2022-08-01T03:35:01;8.73;;;8.73;;
9270;SDS011;4673;53.458;9.940;2022-08-01T03:37:28;9.63;;;9.63;;
9270;SDS011;4673;53.458;9.940;2022-08-01T03:41:02;9.15;;;9.15;;
9270;SDS011;4673;53.458;9.940;2022-08-01T03:43:07;8.95;;;8.95;;
9270;SDS011;4673;53.458;9.940;2022-08-01T03:45:40;9.20;;;9.20;;
9270;SDS011;4673;53.458;9.940;2022-08-01T03:48:15;8.43;;;8.43;;
9270;SDS011;4673;53.458;9.940;2022-08-01T03:50:43;8.95;;;8.95;;
9270;SDS011;4673;53.458;9.940;2022-08-01T03:53:13;8.30;;;8.30;;
9270;SDS011;4673;53.458;9.940;2022-08-01T03:55:39;8.23;;;8.23;;
9270;SDS011;4673;53.458;9.940;2022-08-01T03:58:08;7.47;;;7.47;;
9270;SDS011;4673;53.458;9.940;2022-08-01T04:00:35;6.90;;;6.90;;
9270;SDS011;4673;53.458;9.940;2022-08-01T04:03:03;8.35;;;8.35;;
9270;SDS011;4673;53.458;9.940;2022-08-01T04:05:31;7.40;;;7.40;;
9270;SDS011;4673;53.458;9.940;2022-08-01T04:07:57;7.03;;;7.03;;
9270;SDS011;4673;53.458;9.940;2022-08-01T04:10:24;6.32;;;6.32;;
9270;SDS011;4673;53.458;9.940;2022-08-01T04:12:50;6.38;;;6.38;;
9270;SDS011;4673;53.458;9.940;2022-08-01T04:15:16;6.40;;;6.40;;
9270;SDS011;4673;53.458;9.940;2022-08-01T04:17:42;5.95;;;5.95;;
9270;SDS011;4673;53.458;9.940;2022-08-01T04:20:08;5.45;;;5.45;;
9270;SDS011;4673;53.458;9.940;2022-08-01T04:22:36;5.00;;;5.00;;
9270;SDS011;4673;53.458;9.940;2022-08-01T04:25:02;5.35;;;5.35;;
9270;SDS011;4673;53.458;9.940;2022-08-01T04:27:36;5.38;;;5.38;;
9270;SDS011;4673;53.458;9.940;2022-08-01T04:30:05;4.88;;;4.88;;
9270;SDS011;4673;53.458;9.940;2022-08-01T04:32:34;4.30;;;4.30;;
9270;SDS011;4673;53.458;9.940;2022-08-01T04:35:04;4.63;;;4.63;;
9270;SDS011;4673;53.458;9.940;2022-08-01T04:37:32;4.18;;;4.18;;
9270;SDS011;4673;53.458;9.940;2022-08-01T04:40:02;4.50;;;4.50;;
9270;SDS011;4673;53.458;9.940;2022-08-01T04:42:30;3.67;;;3.67;;
9270;SDS011;4673;53.458;9.940;2022-08-01T04:44:57;3.88;;;3.88;;
9270;SDS011;4673;53.458;9.940;2022-08-01T04:47:22;3.03;;;3.03;;
9270;SDS011;4673;53.458;9.940;2022-08-01T04:49:49;3.15;;;3.15;;
9270;SDS011;4673;53.458;9.940;2022-08-01T04:52:16;3.33;;;3.33;;
9270;SDS011;4673;53.458;9.940;2022-08-01T04:54:42;2.85;;;2.85;;
9270;SDS011;4673;53.458;9.940;2022-08-01T04:57:08;3.50;;;3.50;;
9270;SDS011;4673;53.458;9.940;2022-08-01T04:59:35;3.28;;;3.28;;
9270;SDS011;4673;53.458;9.940;2022-08-01T05:02:13;2.85;;;2.85;;
9270;SDS011;4673;53.458;9.940;2022-08-01T05:04:40;3.03;;;3.03;;
9270;SDS011;4673;53.458;9.940;2022-08-01T05:07:07;2.83;;;2.83;;
9270;SDS011;4673;53.458;9.940;2022-08-01T05:09:35;2.60;;;2.60;;
9270;SDS011;4673;53.458;9.940;2022-08-01T05:12:01;2.83;;;2.83;;
9270;SDS011;4673;53.458;9.940;2022-08-01T05:14:29;2.30;;;2.30;;
9270;SDS011;4673;53.458;9.940;2022-08-01T05:16:59;2.33;;;2.33;;
9270;SDS011;4673;53.458;9.940;2022-08-01T05:19:28;2.40;;;2.40;;
9270;SDS011;4673;53.458;9.940;2022-08-01T05:21:58;2.40;;;2.40;;
9270;SDS011;4673;53.458;9.940;2022-08-01T05:24:25;2.65;;;2.65;;
9270;SDS011;4673;53.458;9.940;2022-08-01T05:26:54;2.63;;;2.63;;
9270;SDS011;4673;53.458;9.940;2022-08-01T05:29:21;3.10;;;3.10;;
9270;SDS011;4673;53.458;9.940;2022-08-01T05:31:47;2.80;;;2.80;;
9270;SDS011;4673;53.458;9.940;2022-08-01T05:34:12;3.85;;;3.85;;
9270;SDS011;4673;53.458;9.940;2022-08-01T05:36:38;3.55;;;3.55;;
9270;SDS011;4673;53.458;9.940;2022-08-01T05:39:04;3.90;;;3.90;;
9270;SDS011;4673;53.458;9.940;2022-08-01T05:41:29;4.10;;;4.10;;
9270;SDS011;4673;53.458;9.940;2022-08-01T05:43:55;4.50;;;4.50;;
9270;SDS011;4673;53.458;9.940;2022-08-01T05:46:21;3.88;;;3.88;;
9270;SDS011;4673;53.458;9.940;2022-08-01T05:48:47;4.47;;;4.47;;
9270;SDS011;4673;53.458;9.940;2022-08-01T05:51:12;4.03;;;4.03;;
9270;SDS011;4673;53.458;9.940;2022-08-01T05:53:38;4.85;;;4.85;;
9270;SDS011;4673;53.458;9.940;2022-08-01T05:56:04;4.18;;;4.18;;
9270;SDS011;4673;53.458;9.940;2022-08-01T05:58:30;4.60;;;4.60;;
9270;SDS011;4673;53.458;9.940;2022-08-01T06:00:56;4.85;;;4.85;;
9270;SDS011;4673;53.458;9.940;2022-08-01T06:03:22;5.18;;;5.18;;
9270;SDS011;4673;53.458;9.940;2022-08-01T06:05:48;6.20;;;6.20;;
9270;SDS011;4673;53.458;9.940;2022-08-01T06:08:13;5.40;;;5.40;;
9270;SDS011;4673;53.458;9.940;2022-08-01T06:10:39;4.70;;;4.70;;
9270;SDS011;4673;53.458;9.940;2022-08-01T06:13:05;4.63;;;4.63;;
9270;SDS011;4673;53.458;9.940;2022-08-01T06:15:31;4.63;;;4.63;;
9270;SDS011;4673;53.458;9.940;2022-08-01T06:17:57;3.25;;;3.25;;
9270;SDS011;4673;53.458;9.940;2022-08-01T06:20:23;3.22;;;3.22;;
9270;SDS011;4673;53.458;9.940;2022-08-01T06:22:48;3.42;;;3.42;;
9270;SDS011;4673;53.458;9.940;2022-08-01T06:25:16;3.80;;;3.80;;
9270;SDS011;4673;53.458;9.940;2022-08-01T06:27:42;3.92;;;3.92;;
9270;SDS011;4673;53.458;9.940;2022-08-01T06:30:08;4.57;;;4.57;;
9270;SDS011;4673;53.458;9.940;2022-08-01T06:32:34;3.83;;;3.83;;
9270;SDS011;4673;53.458;9.940;2022-08-01T06:35:00;3.72;;;3.72;;
9270;SDS011;4673;53.458;9.940;2022-08-01T06:37:32;2.90;;;2.90;;
9270;SDS011;4673;53.458;9.940;2022-08-01T06:40:05;2.47;;;2.47;;
9270;SDS011;4673;53.458;9.940;2022-08-01T06:42:33;2.80;;;2.80;;
9270;SDS011;4673;53.458;9.940;2022-08-01T06:45:06;2.95;;;2.95;;
9270;SDS011;4673;53.458;9.940;2022-08-01T06:47:33;2.83;;;2.83;;
9270;SDS011;4673;53.458;9.940;2022-08-01T06:49:59;3.45;;;3.45;;
9270;SDS011;4673;53.458;9.940;2022-08-01T06:52:25;3.88;;;3.88;;
9270;SDS011;4673;53.458;9.940;2022-08-01T06:54:51;3.50;;;3.50;;
9270;SDS011;4673;53.458;9.940;2022-08-01T06:57:16;3.30;;;3.30;;
9270;SDS011;4673;53.458;9.940;2022-08-01T06:59:43;4.18;;;4.18;;
9270;SDS011;4673;53.458;9.940;2022-08-01T07:02:08;4.70;;;4.70;;
9270;SDS011;4673;53.458;9.940;2022-08-01T07:04:34;4.30;;;4.30;;
9270;SDS011;4673;53.458;9.940;2022-08-01T07:07:00;4.22;;;4.22;;
9270;SDS011;4673;53.458;9.940;2022-08-01T07:09:26;3.13;;;3.13;;
9270;SDS011;4673;53.458;9.940;2022-08-01T07:11:52;2.90;;;2.90;;
9270;SDS011;4673;53.458;9.940;2022-08-01T07:14:19;3.20;;;3.20;;
9270;SDS011;4673;53.458;9.940;2022-08-01T07:16:45;2.65;;;2.65;;
9270;SDS011;4673;53.458;9.940;2022-08-01T07:19:11;3.30;;;3.30;;
9270;SDS011;4673;53.458;9.940;2022-08-01T07:21:37;2.85;;;2.85;;
9270;SDS011;4673;53.458;9.940;2022-08-01T07:24:03;3.00;;;3.00;;
9270;SDS011;4673;53.458;9.940;2022-08-01T07:26:30;3.97;;;3.97;;
9270;SDS011;4673;53.458;9.940;2022-08-01T07:28:55;4.85;;;4.85;;
9270;SDS011;4673;53.458;9.940;2022-08-01T07:31:21;4.28;;;4.18;;
9270;SDS011;4673;53.458;9.940;2022-08-01T07:33:48;3.83;;;3.83;;
9270;SDS011;4673;53.458;9.940;2022-08-01T07:36:14;4.32;;;4.32;;
9270;SDS011;4673;53.458;9.940;2022-08-01T07:38:40;4.47;;;4.47;;
9270;SDS011;4673;53.458;9.940;2022-08-01T07:41:05;4.05;;;4.05;;
9270;SDS011;4673;53.458;9.940;2022-08-01T07:43:31;4.70;;;4.70;;
9270;SDS011;4673;53.458;9.940;2022-08-01T07:45:56;4.60;;;4.60;;
9270;SDS011;4673;53.458;9.940;2022-08-01T07:48:22;5.32;;;5.22;;
9270;SDS011;4673;53.458;9.940;2022-08-01T07:50:49;4.65;;;4.65;;
9270;SDS011;4673;53.458;9.940;2022-08-01T07:53:15;4.78;;;4.78;;
9270;SDS011;4673;53.458;9.940;2022-08-01T07:55:41;4.15;;;4.13;;
9270;SDS011;4673;53.458;9.940;2022-08-01T07:58:07;4.15;;;4.15;;
9270;SDS011;4673;53.458;9.940;2022-08-01T08:00:33;5.15;;;5.05;;
9270;SDS011;4673;53.458;9.940;2022-08-01T08:02:58;4.50;;;4.50;;
9270;SDS011;4673;53.458;9.940;2022-08-01T08:05:25;4.57;;;4.57;;
9270;SDS011;4673;53.458;9.940;2022-08-01T08:07:51;5.07;;;5.05;;
9270;SDS011;4673;53.458;9.940;2022-08-01T08:10:16;4.60;;;4.53;;
9270;SDS011;4673;53.458;9.940;2022-08-01T08:12:42;5.25;;;5.25;;
9270;SDS011;4673;53.458;9.940;2022-08-01T08:15:08;4.95;;;4.95;;
9270;SDS011;4673;53.458;9.940;2022-08-01T08:17:34;4.53;;;4.50;;
9270;SDS011;4673;53.458;9.940;2022-08-01T08:20:00;3.85;;;3.85;;
9270;SDS011;4673;53.458;9.940;2022-08-01T08:22:27;4.25;;;4.25;;
9270;SDS011;4673;53.458;9.940;2022-08-01T08:24:53;3.55;;;3.55;;
9270;SDS011;4673;53.458;9.940;2022-08-01T08:27:19;2.47;;;2.47;;
9270;SDS011;4673;53.458;9.940;2022-08-01T08:29:44;2.63;;;2.63;;
9270;SDS011;4673;53.458;9.940;2022-08-01T08:32:10;2.60;;;2.60;;
9270;SDS011;4673;53.458;9.940;2022-08-01T08:34:36;1.95;;;1.95;;
9270;SDS011;4673;53.458;9.940;2022-08-01T08:37:01;1.73;;;1.73;;
9270;SDS011;4673;53.458;9.940;2022-08-01T08:39:27;2.63;;;2.63;;
9270;SDS011;4673;53.458;9.940;2022-08-01T08:41:54;2.28;;;2.28;;
9270;SDS011;4673;53.458;9.940;2022-08-01T08:44:24;2.53;;;2.53;;
9270;SDS011;4673;53.458;9.940;2022-08-01T08:46:50;2.67;;;2.67;;
9270;SDS011;4673;53.458;9.940;2022-08-01T08:49:18;2.38;;;2.38;;
9270;SDS011;4673;53.458;9.940;2022-08-01T08:51:49;2.10;;;2.10;;
9270;SDS011;4673;53.458;9.940;2022-08-01T08:54:16;3.03;;;3.03;;
9270;SDS011;4673;53.458;9.940;2022-08-01T08:56:44;3.00;;;3.00;;
9270;SDS011;4673;53.458;9.940;2022-08-01T08:59:12;3.15;;;3.15;;
9270;SDS011;4673;53.458;9.940;2022-08-01T09:01:38;3.58;;;3.58;;
9270;SDS011;4673;53.458;9.940;2022-08-01T09:04:05;3.03;;;3.03;;
9270;SDS011;4673;53.458;9.940;2022-08-01T09:06:31;3.00;;;3.00;;
9270;SDS011;4673;53.458;9.940;2022-08-01T09:08:57;3.10;;;3.10;;
9270;SDS011;4673;53.458;9.940;2022-08-01T09:11:23;3.38;;;3.38;;
9270;SDS011;4673;53.458;9.940;2022-08-01T09:17:02;3.30;;;3.30;;
9270;SDS011;4673;53.458;9.940;2022-08-01T09:19:43;3.05;;;3.05;;
9270;SDS011;4673;53.458;9.940;2022-08-01T09:22:13;2.72;;;2.72;;
9270;SDS011;4673;53.458;9.940;2022-08-01T09:24:55;3.40;;;3.40;;
9270;SDS011;4673;53.458;9.940;2022-08-01T09:27:26;3.50;;;3.50;;
9270;SDS011;4673;53.458;9.940;2022-08-01T09:29:52;4.10;;;4.10;;
9270;SDS011;4673;53.458;9.940;2022-08-01T09:32:19;3.28;;;3.28;;
9270;SDS011;4673;53.458;9.940;2022-08-01T09:34:45;3.85;;;3.85;;
9270;SDS011;4673;53.458;9.940;2022-08-01T09:37:11;3.88;;;3.88;;
9270;SDS011;4673;53.458;9.940;2022-08-01T09:39:39;3.40;;;3.40;;
9270;SDS011;4673;53.458;9.940;2022-08-01T09:42:26;4.47;;;4.47;;
9270;SDS011;4673;53.458;9.940;2022-08-01T09:44:52;3.22;;;3.22;;
9270;SDS011;4673;53.458;9.940;2022-08-01T09:47:18;3.78;;;3.78;;
9270;SDS011;4673;53.458;9.940;2022-08-01T09:49:55;3.63;;;3.63;;
9270;SDS011;4673;53.458;9.940;2022-08-01T09:52:22;3.10;;;3.10;;
9270;SDS011;4673;53.458;9.940;2022-08-01T09:54:54;3.95;;;3.95;;
9270;SDS011;4673;53.458;9.940;2022-08-01T09:57:27;3.67;;;3.67;;
9270;SDS011;4673;53.458;9.940;2022-08-01T09:59:55;3.60;;;3.60;;
9270;SDS011;4673;53.458;9.940;2022-08-01T10:02:31;3.22;;;3.22;;
9270;SDS011;4673;53.458;9.940;2022-08-01T10:04:59;3.42;;;3.42;;
9270;SDS011;4673;53.458;9.940;2022-08-01T10:07:26;3.38;;;3.38;;
9270;SDS011;4673;53.458;9.940;2022-08-01T10:09:52;3.85;;;3.85;;
9270;SDS011;4673;53.458;9.940;2022-08-01T10:12:19;3.13;;;3.13;;
9270;SDS011;4673;53.458;9.940;2022-08-01T10:14:47;2.80;;;2.80;;
9270;SDS011;4673;53.458;9.940;2022-08-01T10:17:20;2.58;;;2.58;;
9270;SDS011;4673;53.458;9.940;2022-08-01T10:19:49;3.10;;;3.10;;
9270;SDS011;4673;53.458;9.940;2022-08-01T10:22:15;3.50;;;3.50;;
9270;SDS011;4673;53.458;9.940;2022-08-01T10:24:44;4.40;;;4.30;;
9270;SDS011;4673;53.458;9.940;2022-08-01T10:27:13;3.15;;;3.15;;
9270;SDS011;4673;53.458;9.940;2022-08-01T10:32:28;2.80;;;2.80;;
9270;SDS011;4673;53.458;9.940;2022-08-01T10:34:55;3.08;;;3.08;;
9270;SDS011;4673;53.458;9.940;2022-08-01T10:37:21;2.60;;;2.60;;
9270;SDS011;4673;53.458;9.940;2022-08-01T10:39:48;2.47;;;2.47;;
9270;SDS011;4673;53.458;9.940;2022-08-01T10:42:16;2.38;;;2.38;;
9270;SDS011;4673;53.458;9.940;2022-08-01T10:44:43;2.33;;;2.33;;
9270;SDS011;4673;53.458;9.940;2022-08-01T10:47:13;2.65;;;2.65;;
9270;SDS011;4673;53.458;9.940;2022-08-01T10:49:45;2.88;;;2.88;;
9270;SDS011;4673;53.458;9.940;2022-08-01T10:52:17;2.50;;;2.50;;
9270;SDS011;4673;53.458;9.940;2022-08-01T10:54:43;2.22;;;2.22;;
9270;SDS011;4673;53.458;9.940;2022-08-01T10:57:09;2.20;;;2.20;;
9270;SDS011;4673;53.458;9.940;2022-08-01T10:59:47;1.58;;;1.58;;
9270;SDS011;4673;53.458;9.940;2022-08-01T11:02:26;2.22;;;2.22;;
9270;SDS011;4673;53.458;9.940;2022-08-01T11:04:54;2.85;;;2.85;;
9270;SDS011;4673;53.458;9.940;2022-08-01T11:07:42;3.05;;;3.03;;
9270;SDS011;4673;53.458;9.940;2022-08-01T11:10:15;3.25;;;3.25;;
9270;SDS011;4673;53.458;9.940;2022-08-01T11:12:41;2.50;;;2.50;;
9270;SDS011;4673;53.458;9.940;2022-08-01T11:17:40;2.25;;;2.25;;
9270;SDS011;4673;53.458;9.940;2022-08-01T11:20:29;2.80;;;2.80;;
9270;SDS011;4673;53.458;9.940;2022-08-01T11:30:54;2.50;;;2.50;;
9270;SDS011;4673;53.458;9.940;2022-08-01T11:41:15;2.00;;;2.00;;
9270;SDS011;4673;53.458;9.940;2022-08-01T11:44:04;1.75;;;1.75;;
9270;SDS011;4673;53.458;9.940;2022-08-01T11:46:50;2.03;;;2.03;;
9270;SDS011;4673;53.458;9.940;2022-08-01T11:52:05;2.20;;;2.20;;
9270;SDS011;4673;53.458;9.940;2022-08-01T11:54:35;2.30;;;2.30;;
9270;SDS011;4673;53.458;9.940;2022-08-01T11:57:09;2.55;;;2.55;;
9270;SDS011;4673;53.458;9.940;2022-08-01T11:59:49;2.85;;;2.85;;
9270;SDS011;4673;53.458;9.940;2022-08-01T12:02:20;2.08;;;2.08;;
9270;SDS011;4673;53.458;9.940;2022-08-01T12:04:57;2.30;;;2.30;;
9270;SDS011;4673;53.458;9.940;2022-08-01T12:07:26;2.03;;;2.03;;
9270;SDS011;4673;53.458;9.940;2022-08-01T12:12:31;2.60;;;2.60;;
9270;SDS011;4673;53.458;9.940;2022-08-01T12:14:59;1.95;;;1.95;;
9270;SDS011;4673;53.458;9.940;2022-08-01T12:17:49;2.00;;;2.00;;
9270;SDS011;4673;53.458;9.940;2022-08-01T12:20:15;1.90;;;1.90;;
9270;SDS011;4673;53.458;9.940;2022-08-01T12:22:46;2.55;;;2.55;;
9270;SDS011;4673;53.458;9.940;2022-08-01T12:25:13;2.60;;;2.60;;
9270;SDS011;4673;53.458;9.940;2022-08-01T12:27:40;1.80;;;1.80;;
9270;SDS011;4673;53.458;9.940;2022-08-01T12:30:08;2.42;;;2.42;;
9270;SDS011;4673;53.458;9.940;2022-08-01T12:32:39;1.95;;;1.95;;
9270;SDS011;4673;53.458;9.940;2022-08-01T12:35:13;2.25;;;2.25;;
9270;SDS011;4673;53.458;9.940;2022-08-01T12:37:45;1.83;;;1.83;;
9270;SDS011;4673;53.458;9.940;2022-08-01T12:40:13;2.10;;;2.10;;
9270;SDS011;4673;53.458;9.940;2022-08-01T12:42:41;2.05;;;2.05;;
9270;SDS011;4673;53.458;9.940;2022-08-01T12:45:09;2.13;;;2.13;;
9270;SDS011;4673;53.458;9.940;2022-08-01T12:47:37;2.28;;;2.28;;
9270;SDS011;4673;53.458;9.940;2022-08-01T12:50:14;1.90;;;1.90;;
9270;SDS011;4673;53.458;9.940;2022-08-01T12:52:42;1.70;;;1.70;;
9270;SDS011;4673;53.458;9.940;2022-08-01T12:57:39;1.27;;;1.27;;
9270;SDS011;4673;53.458;9.940;2022-08-01T13:00:08;1.95;;;1.95;;
9270;SDS011;4673;53.458;9.940;2022-08-01T13:02:46;1.88;;;1.88;;
9270;SDS011;4673;53.458;9.940;2022-08-01T13:05:12;2.35;;;2.35;;
9270;SDS011;4673;53.458;9.940;2022-08-01T13:10:13;1.95;;;1.95;;
9270;SDS011;4673;53.458;9.940;2022-08-01T13:12:40;1.83;;;1.83;;
9270;SDS011;4673;53.458;9.940;2022-08-01T13:17:51;2.22;;;2.22;;
9270;SDS011;4673;53.458;9.940;2022-08-01T13:20:22;1.80;;;1.80;;
9270;SDS011;4673;53.458;9.940;2022-08-01T13:22:49;1.67;;;1.67;;
9270;SDS011;4673;53.458;9.940;2022-08-01T13:25:15;2.47;;;2.47;;
9270;SDS011;4673;53.458;9.940;2022-08-01T13:27:41;1.73;;;1.73;;
9270;SDS011;4673;53.458;9.940;2022-08-01T13:30:12;1.65;;;1.65;;
9270;SDS011;4673;53.458;9.940;2022-08-01T13:32:43;1.67;;;1.67;;
9270;SDS011;4673;53.458;9.940;2022-08-01T13:35:21;2.40;;;2.40;;
9270;SDS011;4673;53.458;9.940;2022-08-01T13:37:47;2.00;;;2.00;;
9270;SDS011;4673;53.458;9.940;2022-08-01T13:40:22;1.33;;;1.33;;
9270;SDS011;4673;53.458;9.940;2022-08-01T13:42:49;1.55;;;1.55;;
9270;SDS011;4673;53.458;9.940;2022-08-01T13:45:15;1.40;;;1.40;;
9270;SDS011;4673;53.458;9.940;2022-08-01T13:47:41;1.63;;;1.63;;
9270;SDS011;4673;53.458;9.940;2022-08-01T13:50:07;1.73;;;1.73;;
9270;SDS011;4673;53.458;9.940;2022-08-01T13:52:33;2.08;;;2.08;;
9270;SDS011;4673;53.458;9.940;2022-08-01T13:54:59;1.40;;;1.40;;
9270;SDS011;4673;53.458;9.940;2022-08-01T13:57:26;1.90;;;1.90;;
9270;SDS011;4673;53.458;9.940;2022-08-01T13:59:55;2.15;;;2.15;;
9270;SDS011;4673;53.458;9.940;2022-08-01T14:02:39;1.48;;;1.48;;
9270;SDS011;4673;53.458;9.940;2022-08-01T14:05:05;1.48;;;1.48;;
9270;SDS011;4673;53.458;9.940;2022-08-01T14:07:31;1.73;;;1.73;;
9270;SDS011;4673;53.458;9.940;2022-08-01T14:09:57;1.73;;;1.73;;
9270;SDS011;4673;53.458;9.940;2022-08-01T14:12:22;1.67;;;1.67;;
9270;SDS011;4673;53.458;9.940;2022-08-01T14:14:48;2.08;;;2.08;;
9270;SDS011;4673;53.458;9.940;2022-08-01T14:17:14;1.67;;;1.67;;
9270;SDS011;4673;53.458;9.940;2022-08-01T14:19:39;2.15;;;2.15;;
9270;SDS011;4673;53.458;9.940;2022-08-01T14:22:05;1.25;;;1.25;;
9270;SDS011;4673;53.458;9.940;2022-08-01T14:24:30;2.05;;;2.05;;
9270;SDS011;4673;53.458;9.940;2022-08-01T14:26:56;1.80;;;1.80;;
9270;SDS011;4673;53.458;9.940;2022-08-01T14:29:22;2.13;;;2.13;;
9270;SDS011;4673;53.458;9.940;2022-08-01T14:31:47;2.17;;;2.17;;
9270;SDS011;4673;53.458;9.940;2022-08-01T14:34:13;1.63;;;1.63;;
9270;SDS011;4673;53.458;9.940;2022-08-01T14:36:38;1.48;;;1.48;;
9270;SDS011;4673;53.458;9.940;2022-08-01T14:39:04;1.83;;;1.83;;
9270;SDS011;4673;53.458;9.940;2022-08-01T14:41:30;2.20;;;2.20;;
9270;SDS011;4673;53.458;9.940;2022-08-01T14:43:55;1.85;;;1.85;;
9270;SDS011;4673;53.458;9.940;2022-08-01T14:46:21;1.60;;;1.60;;
9270;SDS011;4673;53.458;9.940;2022-08-01T14:48:47;1.90;;;1.90;;
9270;SDS011;4673;53.458;9.940;2022-08-01T14:51:12;1.70;;;1.70;;
9270;SDS011;4673;53.458;9.940;2022-08-01T14:53:38;1.85;;;1.85;;
9270;SDS011;4673;53.458;9.940;2022-08-01T14:56:04;1.90;;;1.90;;
9270;SDS011;4673;53.458;9.940;2022-08-01T14:58:30;1.60;;;1.60;;
9270;SDS011;4673;53.458;9.940;2022-08-01T15:00:56;2.08;;;2.08;;
9270;SDS011;4673;53.458;9.940;2022-08-01T15:03:22;2.10;;;2.10;;
9270;SDS011;4673;53.458;9.940;2022-08-01T15:05:47;1.90;;;1.90;;
9270;SDS011;4673;53.458;9.940;2022-08-01T15:08:13;2.03;;;2.03;;
9270;SDS011;4673;53.458;9.940;2022-08-01T15:10:39;1.60;;;1.60;;
9270;SDS011;4673;53.458;9.940;2022-08-01T15:13:04;1.63;;;1.63;;
9270;SDS011;4673;53.458;9.940;2022-08-01T15:15:30;1.30;;;1.30;;
9270;SDS011;4673;53.458;9.940;2022-08-01T15:17:56;1.75;;;1.75;;
9270;SDS011;4673;53.458;9.940;2022-08-01T15:20:21;2.22;;;2.22;;
9270;SDS011;4673;53.458;9.940;2022-08-01T15:22:47;1.50;;;1.50;;
9270;SDS011;4673;53.458;9.940;2022-08-01T15:25:13;1.58;;;1.58;;
9270;SDS011;4673;53.458;9.940;2022-08-01T15:27:39;1.90;;;1.90;;
9270;SDS011;4673;53.458;9.940;2022-08-01T15:30:05;1.80;;;1.80;;
9270;SDS011;4673;53.458;9.940;2022-08-01T15:32:31;1.80;;;1.80;;
9270;SDS011;4673;53.458;9.940;2022-08-01T15:34:56;1.40;;;1.40;;
9270;SDS011;4673;53.458;9.940;2022-08-01T15:37:22;1.52;;;1.52;;
9270;SDS011;4673;53.458;9.940;2022-08-01T15:39:48;2.00;;;2.00;;
9270;SDS011;4673;53.458;9.940;2022-08-01T15:42:14;1.38;;;1.38;;
9270;SDS011;4673;53.458;9.940;2022-08-01T15:44:42;1.83;;;1.83;;
9270;SDS011;4673;53.458;9.940;2022-08-01T15:47:08;1.85;;;1.85;;
9270;SDS011;4673;53.458;9.940;2022-08-01T15:49:34;2.00;;;2.00;;
9270;SDS011;4673;53.458;9.940;2022-08-01T15:52:05;1.75;;;1.75;;
9270;SDS011;4673;53.458;9.940;2022-08-01T15:54:32;1.52;;;1.52;;
9270;SDS011;4673;53.458;9.940;2022-08-01T15:56:58;1.77;;;1.77;;
9270;SDS011;4673;53.458;9.940;2022-08-01T15:59:23;2.13;;;2.13;;
9270;SDS011;4673;53.458;9.940;2022-08-01T16:01:49;2.35;;;2.35;;
9270;SDS011;4673;53.458;9.940;2022-08-01T16:04:15;2.40;;;2.40;;
9270;SDS011;4673;53.458;9.940;2022-08-01T16:06:41;2.45;;;2.45;;
9270;SDS011;4673;53.458;9.940;2022-08-01T16:09:07;2.50;;;2.50;;
9270;SDS011;4673;53.458;9.940;2022-08-01T16:11:33;1.80;;;1.80;;